Time;durP1;ratioP1;P1;durP2;ratioP2;P2;SDS_P1;SDS_P2;PMS_P1;PMS_P2;Temp;Humidity;BMP_temperature;BMP_pressure;BME280_temperature;BME280_humidity;BME280_pressure;Samples;Min_cycle;Max_cycle;Signal;HPM_P1;HPM_P2
2023/11/12 00:00:59;;;;;;;6.13;3.47;;;;;;;24.03;34.00;100062.56;4197430;28;19920;-63
2023/11/12 00:03:01;;;;;;;;;;;;;;;24.07;33.83;100067.47;4198003;28;20066;-62
2023/11/12 00:05:02;;;;;;;6.85;3.00;;;;;;;24.05;34.00;100060.56;4197593;28;19982;-62
2023/11/12 00:07:04;;;;;;;7.07;3.25;;;;;;;24.05;33.94;100061.41;4197300;28;20068;-62
2023/11/12 00:09:06;;;;;;;6.50;3.13;;;;;;;24.00;33.64;100052.97;4196316;28;20489;-62
2023/11/12 00:11:08;;;;;;;7.63;3.28;;;;;;;24.05;33.71;100060.56;4196867;28;20435;-62
2023/11/12 00:13:10;;;;;;;;;;;;;;;24.05;33.98;100063.25;4197660;28;20052;-63
2023/11/12 00:15:12;;;;;;;6.47;3.10;;;;;;;24.05;34.11;100063.25;4197376;28;19924;-63
2023/11/12 00:17:15;;;;;;;7.00;3.00;;;;;;;24.07;33.67;100062.09;4197371;28;20044;-63
2023/11/12 00:19:18;;;;;;;7.25;3.50;;;;;;;24.07;33.75;100059.41;4197182;28;20050;-62
2023/11/12 00:21:20;;;;;;;7.10;3.25;;;;;;;24.11;33.72;100067.13;4197092;28;20102;-64
2023/11/12 00:23:24;;;;;;;6.63;3.45;;;;;;;24.12;33.61;100066.13;4197173;28;20048;-63
2023/11/12 00:25:26;;;;;;;7.85;3.05;;;;;;;24.12;33.71;100061.63;4196645;28;20044;-62
2023/11/12 00:27:28;;;;;;;6.57;3.05;;;;;;;24.10;33.72;100052.88;4196806;28;20044;-62
2023/11/12 00:29:29;;;;;;;5.95;2.85;;;;;;;24.09;33.82;100041.25;4197172;28;20486;-63
2023/11/12 00:31:31;;;;;;;;;;;;;;;24.07;33.98;100034.38;4197342;28;20052;-63
2023/11/12 00:33:33;;;;;;;6.20;3.10;;;;;;;24.02;34.08;100024.13;4196921;28;19920;-63
2023/11/12 00:35:34;;;;;;;5.90;2.85;;;;;;;24.05;33.92;100017.59;4196983;28;20045;-63
2023/11/12 00:37:37;;;;;;;6.10;3.20;;;;;;;23.98;33.71;100000.44;4197065;28;20049;-63
2023/11/12 00:39:40;;;;;;;;;;;;;;;24.06;33.99;100005.84;4195970;28;20048;-63
2023/11/12 00:41:42;;;;;;;5.88;2.67;;;;;;;24.07;33.77;100004.81;4197043;28;19924;-63
2023/11/12 00:43:45;;;;;;;7.03;3.10;;;;;;;24.09;33.48;100008.19;4197023;28;20044;-63
2023/11/12 00:45:56;;;;;;;5.80;2.90;;;;;;;24.11;33.70;100013.41;4197008;28;20574;-63
2023/11/12 00:47:58;;;;;;;7.15;3.05;;;;;;;24.11;34.10;100018.78;4196925;28;20076;-63
2023/11/12 00:50:01;;;;;;;6.13;2.95;;;;;;;24.05;33.68;99998.78;4196610;28;20054;-63
2023/11/12 00:52:03;;;;;;;6.53;3.03;;;;;;;24.09;33.45;100002.81;4196802;28;20056;-63
2023/11/12 00:54:08;;;;;;;6.82;2.80;;;;;;;24.06;33.87;99992.41;4196613;28;20133;-63
2023/11/12 00:56:09;;;;;;;;;;;;;;;24.05;33.67;99996.94;4197597;28;20056;-62
2023/11/12 00:58:11;;;;;;;5.82;2.92;;;;;;;24.02;33.99;99993.72;4196763;28;19966;-62
2023/11/12 01:00:13;;;;;;;6.78;3.03;;;;;;;24.03;33.70;99998.09;4196805;28;20052;-63
2023/11/12 01:02:16;;;;;;;6.07;2.88;;;;;;;24.06;33.91;99990.56;4196422;28;20044;-63
2023/11/12 01:04:18;;;;;;;5.85;2.72;;;;;;;23.96;33.51;99967.50;4196837;28;20160;-62
2023/11/12 01:06:20;;;;;;;6.55;2.80;;;;;;;24.10;33.54;99991.09;4196388;28;20056;-63
2023/11/12 01:08:22;;;;;;;6.60;2.70;;;;;;;24.09;33.74;99984.84;4196109;28;20120;-62
2023/11/12 01:10:24;;;;;;;6.15;2.78;;;;;;;24.07;33.62;99962.69;4196704;28;20102;-63
2023/11/12 01:12:27;;;;;;;6.47;2.70;;;;;;;24.08;33.63;99960.84;4196577;28;20414;-63
2023/11/12 01:14:28;;;;;;;6.75;2.70;;;;;;;24.09;33.52;99966.03;4196334;28;20056;-63
2023/11/12 01:16:30;;;;;;;;;;;;;;;24.05;33.64;99964.69;4197258;28;20079;-62
2023/11/12 01:18:33;;;;;;;4.78;2.30;;;;;;;24.01;33.73;99974.09;4196583;28;19920;-63
2023/11/12 01:20:36;;;;;;;6.95;2.97;;;;;;;24.04;33.70;99981.81;4196643;28;20052;-63
2023/11/12 01:22:38;;;;;;;5.75;2.47;;;;;;;24.03;33.83;99988.19;4196371;28;20048;-63
2023/11/12 01:24:40;;;;;;;6.18;2.65;;;;;;;24.05;33.90;99990.72;4196219;28;20049;-63
2023/11/12 01:26:41;;;;;;;5.75;2.55;;;;;;;24.03;33.78;99990.88;4196597;28;20040;-63
2023/11/12 01:28:43;;;;;;;;;;;;;;;24.04;33.62;99979.13;4197072;28;20067;-63
2023/11/12 01:30:45;;;;;;;5.95;2.30;;;;;;;24.03;33.73;99976.59;4196474;28;19920;-63
2023/11/12 01:32:52;;;;;;;4.95;2.28;;;;;;;24.03;33.69;99972.06;4196297;28;20044;-63
2023/11/12 01:34:54;;;;;;;6.28;2.65;;;;;;;24.03;33.24;99974.75;4196520;28;20053;-63
2023/11/12 01:36:55;;;;;;;;;;;;;;;24.03;33.48;99971.22;4197002;28;20541;-62
2023/11/12 01:38:57;;;;;;;6.32;2.42;;;;;;;23.99;33.77;99981.47;4197419;28;19931;-63
2023/11/12 01:41:02;;;;;;;;;;;;;;;23.99;33.96;99976.09;4200401;28;20123;-62
2023/11/12 01:43:05;;;;;;;5.45;2.40;;;;;;;23.98;33.84;99981.63;4198499;28;19920;-63
2023/11/12 01:45:09;;;;;;;5.32;2.38;;;;;;;23.99;34.08;99992.19;4198663;28;20531;-62
2023/11/12 01:47:13;;;;;;;6.30;2.40;;;;;;;24.00;33.94;99993.88;4199733;28;20056;-62
2023/11/12 01:49:15;;;;;;;5.88;2.25;;;;;;;24.02;33.78;99994.59;4199766;28;20094;-62
2023/11/12 01:51:17;;;;;;;;;;;;;;;24.02;33.90;99996.41;4199371;28;20052;-62
2023/11/12 01:53:19;;;;;;;5.30;2.40;;;;;;;24.01;33.58;99992.88;4199270;28;20440;-63
2023/11/12 01:55:22;;;;;;;;;;;;;;;24.02;33.73;99996.41;4200179;28;20044;-62
2023/11/12 01:57:25;;;;;;;5.20;2.13;;;;;;;24.00;33.78;100001.09;4199537;28;19947;-62
2023/11/12 01:59:30;;;;;;;5.43;2.22;;;;;;;23.98;33.72;99987.81;4199641;28;20063;-62
2023/11/12 02:01:32;;;;;;;4.72;1.92;;;;;;;23.98;33.65;99985.13;4198384;28;20053;-63
2023/11/12 02:03:34;;;;;;;;;;;;;;;24.01;33.92;99992.03;4199886;28;20075;-63
2023/11/12 02:05:36;;;;;;;4.70;1.90;;;;;;;23.98;33.60;99987.00;4199443;28;19920;-63
2023/11/12 02:07:42;;;;;;;6.55;2.20;;;;;;;24.00;33.77;99991.19;4199166;28;20112;-62
2023/11/12 02:09:44;;;;;;;5.30;2.00;;;;;;;24.01;33.95;99992.88;4199122;28;20044;-62
2023/11/12 02:11:46;;;;;;;6.13;1.98;;;;;;;24.01;33.53;99986.66;4198264;28;20051;-62
2023/11/12 02:13:47;;;;;;;5.88;2.20;;;;;;;24.04;34.04;99994.41;4199358;28;20052;-62
2023/11/12 02:15:50;;;;;;;;;;;;;;;24.04;33.84;99991.72;4199805;28;20411;-62
2023/11/12 02:17:52;;;;;;;4.72;1.88;;;;;;;23.95;33.96;99980.09;4199311;28;20003;-62
2023/11/12 02:20:01;;;;;;;5.35;2.22;;;;;;;23.97;33.96;99978.06;4199295;28;20059;-63
2023/11/12 02:22:03;;;;;;;4.97;2.00;;;;;;;24.05;33.93;99983.50;4181190;28;20413;-62
2023/11/12 02:24:05;;;;;;;5.82;2.00;;;;;;;24.04;34.00;99984.50;4199094;28;20445;-63
2023/11/12 02:26:07;;;;;;;5.13;2.03;;;;;;;24.04;33.78;99989.03;4199074;28;20040;-62
2023/11/12 02:28:10;;;;;;;4.78;1.80;;;;;;;24.03;33.52;99982.81;4199115;28;20120;-62
2023/11/12 02:30:12;;;;;;;6.85;2.45;;;;;;;24.03;33.87;99985.50;4198836;28;20140;-62
2023/11/12 02:32:15;;;;;;;4.80;1.75;;;;;;;24.01;34.08;99971.41;4197714;28;20497;-63
2023/11/12 02:34:18;;;;;;;4.40;1.67;;;;;;;24.04;33.83;99979.13;4199056;28;20426;-63
2023/11/12 02:36:25;;;;;;;4.90;1.70;;;;;;;24.06;33.64;99977.13;4198486;28;20128;-63
2023/11/12 02:38:26;;;;;;;3.95;1.73;;;;;;;24.05;33.84;99982.66;4199107;28;20425;-62
2023/11/12 02:40:28;;;;;;;5.03;1.80;;;;;;;23.97;34.15;99959.28;4198917;28;20151;-62
2023/11/12 02:42:30;;;;;;;5.13;1.83;;;;;;;24.07;33.73;99983.31;4198969;28;20135;-62
2023/11/12 02:44:31;;;;;;;5.25;2.00;;;;;;;24.05;33.57;99978.13;4198695;28;20044;-62
2023/11/12 02:46:34;;;;;;;4.63;1.90;;;;;;;24.00;33.96;99968.84;4198496;28;20047;-62
2023/11/12 02:49:15;;;;;;;3.75;1.45;;;;;;;24.04;34.00;99979.13;4198698;28;20609;-62
2023/11/12 02:51:17;;;;;;;4.05;1.73;;;;;;;24.00;34.13;99985.84;4198242;28;20070;-62
2023/11/12 02:53:24;;;;;;;5.10;1.40;;;;;;;23.99;34.07;99976.09;4197385;28;20430;-62
2023/11/12 02:55:27;;;;;;;4.63;1.52;;;;;;;24.02;33.65;99983.84;4198812;28;20490;-62
2023/11/12 02:57:29;;;;;;;4.57;1.58;;;;;;;24.02;33.63;99988.34;4198627;28;20493;-63
2023/11/12 02:59:31;;;;;;;4.38;1.75;;;;;;;24.01;33.91;99981.28;4198508;28;20061;-63
2023/11/12 03:01:37;;;;;;;3.83;1.48;;;;;;;24.01;33.78;99973.22;4198762;28;20072;-62
2023/11/12 03:03:44;;;;;;;4.10;1.45;;;;;;;24.03;34.21;99977.44;4198634;28;20055;-62
2023/11/12 03:05:45;;;;;;;;;;;;;;;24.02;33.77;99970.41;4198678;28;20052;-62
2023/11/12 03:07:47;;;;;;;5.25;1.58;;;;;;;24.02;33.59;99974.91;4198666;28;19963;-62
2023/11/12 03:09:49;;;;;;;5.03;1.73;;;;;;;24.01;33.52;99960.66;4198431;28;20504;-63
2023/11/12 03:11:50;;;;;;;5.38;1.70;;;;;;;23.99;33.72;99962.66;4198240;28;20075;-62
2023/11/12 03:13:52;;;;;;;4.03;1.30;;;;;;;23.99;33.60;99953.78;4198515;28;20049;-62
2023/11/12 03:15:54;;;;;;;4.10;1.42;;;;;;;23.99;33.80;99954.59;4198486;28;20071;-62
2023/11/12 03:17:56;;;;;;;4.28;1.25;;;;;;;23.99;33.92;99957.28;4198392;28;20045;-62
2023/11/12 03:19:57;;;;;;;;;;;;;;;24.01;33.57;99962.47;4198592;28;20163;-62
2023/11/12 03:22:00;;;;;;;4.28;1.50;;;;;;;23.99;33.97;99959.97;4198373;28;20358;-62
2023/11/12 03:24:03;;;;;;;4.05;1.30;;;;;;;24.02;33.69;99959.66;4198309;28;20094;-63
2023/11/12 03:26:05;;;;;;;3.55;1.20;;;;;;;23.95;33.79;99955.94;4197986;28;20076;-62
2023/11/12 03:28:06;;;;;;;;;;;;;;;24.03;33.96;99971.22;4198597;28;20443;-62
2023/11/12 03:30:09;;;;;;;4.32;1.52;;;;;;;23.96;33.91;99962.13;4198190;28;19920;-62
2023/11/12 03:32:11;;;;;;;3.70;1.40;;;;;;;23.96;33.93;99962.97;4197998;28;20048;-62
2023/11/12 03:34:12;;;;;;;;;;;;;;;24.01;33.73;99970.53;4198270;28;20044;-63
2023/11/12 03:36:15;;;;;;;2.95;1.17;;;;;;;23.98;33.78;99968.19;4198055;28;19983;-63
2023/11/12 03:38:17;;;;;;;3.50;1.35;;;;;;;23.99;33.66;99970.72;4198142;28;20060;-62
2023/11/12 03:40:18;;;;;;;4.03;1.30;;;;;;;23.99;33.72;99969.88;4196708;28;20128;-62
2023/11/12 03:42:20;;;;;;;4.18;1.23;;;;;;;23.99;33.96;99962.66;4198046;28;20079;-62
2023/11/12 03:44:22;;;;;;;;;;;;;;;24.01;33.78;99971.41;4198202;28;20040;-63
2023/11/12 03:46:23;;;;;;;3.30;1.15;;;;;;;24.01;33.89;99967.84;4197836;28;19928;-62
2023/11/12 03:48:25;;;;;;;;;;;;;;;24.01;33.78;99967.84;4197951;28;20044;-62
2023/11/12 03:50:27;;;;;;;3.25;1.25;;;;;;;24.00;34.04;99967.03;4197612;28;19927;-62
2023/11/12 03:52:28;;;;;;;3.03;1.15;;;;;;;24.02;33.91;99966.84;4197742;28;20163;-63
2023/11/12 03:54:30;;;;;;;;;;;;;;;24.01;33.76;99971.41;4198073;28;20131;-62
2023/11/12 03:56:32;;;;;;;2.85;1.08;;;;;;;23.97;33.91;99959.28;4197785;28;20007;-63
2023/11/12 03:58:33;;;;;;;;;;;;;;;24.00;33.60;99958.97;4198060;28;20071;-63
2023/11/12 04:00:36;;;;;;;4.00;1.30;;;;;;;23.98;34.11;99952.91;4197616;28;19959;-63
2023/11/12 04:02:40;;;;;;;3.17;1.15;;;;;;;23.99;33.56;99957.28;4196698;28;20068;-62
2023/11/12 04:04:42;;;;;;;3.80;1.10;;;;;;;23.99;33.64;99959.13;4197594;28;20444;-62
2023/11/12 04:06:44;;;;;;;3.20;1.00;;;;;;;24.00;33.61;99958.13;4197610;28;20044;-62
2023/11/12 04:08:46;;;;;;;;;;;;;;;24.00;33.82;99947.38;4197934;28;20052;-62
2023/11/12 04:10:48;;;;;;;2.63;1.08;;;;;;;23.98;34.02;99952.09;4197324;28;20010;-63
2023/11/12 04:12:49;;;;;;;2.22;0.82;;;;;;;23.99;33.64;99949.22;4197441;28;20158;-62
2023/11/12 04:14:52;;;;;;;3.92;1.17;;;;;;;23.98;33.40;99944.84;4197454;28;20103;-62
2023/11/12 04:16:53;;;;;;;3.65;1.08;;;;;;;24.02;33.99;99956.97;4197127;28;20479;-63
2023/11/12 04:18:55;;;;;;;3.95;1.40;;;;;;;24.01;33.70;99951.75;4196079;28;20059;-63
2023/11/12 04:20:58;;;;;;;3.70;1.10;;;;;;;24.02;33.93;99954.28;4197257;28;20118;-62
2023/11/12 04:22:59;;;;;;;3.63;1.00;;;;;;;23.99;33.83;99951.91;4197207;28;20557;-63
2023/11/12 04:25:04;;;;;;;3.75;1.20;;;;;;;24.00;34.00;99948.22;4197267;28;20055;-62
2023/11/12 04:27:06;;;;;;;3.55;1.30;;;;;;;23.97;33.51;99948.53;4197184;28;20048;-63
2023/11/12 04:29:08;;;;;;;2.88;1.17;;;;;;;23.98;33.71;99944.84;4197254;28;20049;-63
2023/11/12 04:31:10;;;;;;;2.70;1.10;;;;;;;24.02;33.66;99950.75;4197049;28;20412;-62
2023/11/12 04:33:12;;;;;;;3.38;1.10;;;;;;;24.01;33.59;99946.38;4196805;28;20135;-62
2023/11/12 04:35:13;;;;;;;;;;;;;;;24.01;33.90;99947.22;4197377;28;20051;-62
2023/11/12 04:37:15;;;;;;;3.53;1.00;;;;;;;23.99;33.88;99934.97;4197097;28;19955;-63
2023/11/12 04:39:18;;;;;;;3.13;0.82;;;;;;;24.01;33.59;99946.38;4197159;28;20052;-63
2023/11/12 04:41:20;;;;;;;3.25;1.08;;;;;;;24.02;33.88;99940.00;4196857;28;20040;-62
2023/11/12 04:43:22;;;;;;;;;;;;;;;24.00;33.86;99945.53;4196118;28;20487;-62
2023/11/12 04:45:24;;;;;;;2.90;0.90;;;;;;;23.97;33.83;99939.66;4196736;28;19960;-62
2023/11/12 04:47:26;;;;;;;2.90;1.00;;;;;;;23.98;33.87;99938.66;4196737;28;20056;-62
2023/11/12 04:49:27;;;;;;;;;;;;;;;23.97;33.78;99935.09;4197414;28;20047;-62
2023/11/12 04:51:31;;;;;;;3.55;0.90;;;;;;;23.95;33.78;99934.44;4196689;28;19935;-62
2023/11/12 04:53:33;;;;;;;2.70;0.98;;;;;;;23.98;33.61;99934.09;4196944;28;20072;-63
2023/11/12 04:55:35;;;;;;;;;;;;;;;24.00;33.90;99931.25;4197265;28;20052;-63
2023/11/12 04:57:37;;;;;;;2.17;0.82;;;;;;;24.00;33.78;99928.56;4196954;28;19928;-62
2023/11/12 04:59:40;;;;;;;2.13;0.80;;;;;;;23.97;33.60;99923.53;4195457;28;20045;-63
2023/11/12 05:01:42;;;;;;;3.80;1.10;;;;;;;24.01;33.71;99925.75;4196486;28;20129;-62
2023/11/12 05:03:45;;;;;;;3.67;1.02;;;;;;;24.01;33.65;99924.88;4196942;28;20487;-62
2023/11/12 05:05:47;;;;;;;2.78;1.00;;;;;;;24.01;33.66;99930.25;4196797;28;20499;-62
2023/11/12 05:07:49;;;;;;;2.65;0.93;;;;;;;24.00;33.76;99920.50;4195273;28;20044;-62
2023/11/12 05:09:50;;;;;;;;;;;;;;;23.98;33.85;99914.47;4197207;28;20056;-62
2023/11/12 05:11:53;;;;;;;3.97;0.98;;;;;;;23.96;33.98;99911.09;4196782;28;19921;-63
2023/11/12 05:13:55;;;;;;;4.00;1.00;;;;;;;23.95;33.71;99907.59;4195648;28;20056;-62
2023/11/12 05:15:57;;;;;;;2.63;0.73;;;;;;;23.97;33.80;99905.56;4196265;28;20040;-62
2023/11/12 05:18:05;;;;;;;3.22;0.95;;;;;;;23.97;33.92;99905.56;4196398;28;20506;-62
2023/11/12 05:20:08;;;;;;;2.83;0.80;;;;;;;23.93;33.72;99885.41;4196690;28;20083;-62
2023/11/12 05:22:09;;;;;;;2.92;0.90;;;;;;;23.97;33.69;99880.56;4196646;28;20499;-62
2023/11/12 05:24:14;;;;;;;2.80;0.77;;;;;;;23.98;33.50;99874.19;4196375;28;20147;-63
2023/11/12 05:26:15;;;;;;;2.67;1.00;;;;;;;24.00;33.54;99885.59;4196411;28;20044;-63
2023/11/12 05:28:17;;;;;;;2.70;0.95;;;;;;;23.99;33.83;99881.25;4196562;28;20068;-62
2023/11/12 05:30:20;;;;;;;2.45;0.95;;;;;;;23.99;33.83;99884.75;4196315;28;20098;-62
2023/11/12 05:32:22;;;;;;;2.92;0.88;;;;;;;23.98;33.43;99887.63;4196304;28;20068;-62
2023/11/12 05:34:24;;;;;;;2.85;0.70;;;;;;;23.98;33.47;99890.31;4196683;28;20547;-62
2023/11/12 05:36:26;;;;;;;1.88;0.60;;;;;;;23.97;33.87;99888.63;4196356;28;20072;-62
2023/11/12 05:38:28;;;;;;;2.28;0.68;;;;;;;23.97;33.57;99892.13;4196472;28;20148;-62
2023/11/12 05:40:29;;;;;;;2.33;0.77;;;;;;;23.97;33.56;99891.31;4196297;28;20144;-62
2023/11/12 05:42:32;;;;;;;2.50;0.68;;;;;;;23.97;33.41;99889.44;4196320;28;20049;-62
2023/11/12 05:44:34;;;;;;;3.22;0.90;;;;;;;23.99;33.62;99889.31;4194825;28;20068;-63
2023/11/12 05:46:35;;;;;;;1.88;0.63;;;;;;;23.92;33.58;99878.31;4196496;28;20132;-62
2023/11/12 05:48:37;;;;;;;2.67;0.90;;;;;;;23.99;33.45;99890.13;4196278;28;20044;-62
2023/11/12 05:50:39;;;;;;;2.78;0.80;;;;;;;23.99;33.55;99883.94;4196182;28;20132;-63
2023/11/12 05:52:42;;;;;;;1.95;0.70;;;;;;;23.99;33.55;99887.44;4196037;28;20051;-62
2023/11/12 05:54:43;;;;;;;2.83;0.70;;;;;;;23.93;33.24;99877.38;4196213;28;20044;-63
2023/11/12 05:56:45;;;;;;;2.42;0.70;;;;;;;23.97;33.43;99888.63;4196200;28;20048;-62
2023/11/12 05:58:47;;;;;;;2.65;0.77;;;;;;;23.96;33.61;99890.44;4196090;28;20068;-62
2023/11/12 06:00:49;;;;;;;2.05;0.65;;;;;;;23.98;33.43;99893.00;4196342;28;20044;-62
2023/11/12 06:02:50;;;;;;;2.22;0.70;;;;;;;23.97;33.59;99888.63;4195988;28;20139;-63
2023/11/12 06:04:52;;;;;;;2.35;0.77;;;;;;;23.96;33.74;99885.06;4196473;28;20064;-62
2023/11/12 06:06:54;;;;;;;3.45;0.70;;;;;;;23.97;33.84;99888.63;4196172;28;20059;-62
2023/11/12 06:08:56;;;;;;;2.40;0.70;;;;;;;23.98;33.42;99872.34;4196073;28;20079;-62
2023/11/12 06:11:00;;;;;;;1.88;0.65;;;;;;;23.99;33.28;99875.88;4196260;28;20049;-62
2023/11/12 06:13:01;;;;;;;1.95;0.60;;;;;;;23.90;33.41;99859.69;4195770;28;20127;-62
2023/11/12 06:15:05;;;;;;;1.77;0.68;;;;;;;23.97;33.68;99870.66;4196249;28;20052;-62
2023/11/12 06:17:07;;;;;;;2.30;0.65;;;;;;;23.98;33.50;99872.34;4196151;28;20044;-62
2023/11/12 06:19:09;;;;;;;2.15;0.63;;;;;;;23.98;33.61;99871.50;4195914;28;20419;-63
2023/11/12 06:21:10;;;;;;;2.88;0.90;;;;;;;23.96;33.27;99878.88;4196109;28;20153;-62
2023/11/12 06:23:12;;;;;;;;;;;;;;;23.95;33.50;99875.38;4196447;28;20102;-63
2023/11/12 06:25:15;;;;;;;2.40;0.77;;;;;;;23.90;33.55;99873.13;4196787;28;20383;-63
2023/11/12 06:27:17;;;;;;;1.33;0.60;;;;;;;23.95;33.45;99886.09;4198992;28;20045;-63
2023/11/12 06:29:18;;;;;;;1.48;0.50;;;;;;;23.96;33.66;99885.06;4199008;28;20053;-63
2023/11/12 06:31:21;;;;;;;2.45;0.70;;;;;;;23.96;33.33;99885.06;4199161;28;20076;-62
2023/11/12 06:33:23;;;;;;;1.83;0.68;;;;;;;23.97;33.46;99880.56;4199044;28;20555;-62
2023/11/12 06:35:25;;;;;;;2.13;0.73;;;;;;;23.96;33.41;99878.88;4198976;28;20048;-61
2023/11/12 06:37:27;;;;;;;2.10;0.60;;;;;;;23.94;33.37;99881.72;4198749;28;20105;-62
2023/11/12 06:39:29;;;;;;;2.25;0.75;;;;;;;23.93;33.25;99877.38;4199118;28;20120;-62
2023/11/12 06:41:31;;;;;;;2.40;0.60;;;;;;;23.94;33.58;99876.38;4198980;28;20514;-62
2023/11/12 06:43:32;;;;;;;2.00;0.80;;;;;;;23.92;33.51;99881.00;4197480;28;20478;-62
2023/11/12 06:45:34;;;;;;;2.55;0.77;;;;;;;23.91;33.16;99882.88;4198817;28;20068;-62
2023/11/12 06:47:36;;;;;;;1.88;0.60;;;;;;;23.90;33.55;99885.69;4198671;28;20052;-63
2023/11/12 06:49:39;;;;;;;1.50;0.60;;;;;;;23.91;33.58;99888.25;4197569;28;20056;-63
2023/11/12 06:51:40;;;;;;;2.17;0.80;;;;;;;23.92;33.33;99883.69;4198794;28;20414;-63
2023/11/12 06:53:42;;;;;;;2.22;0.60;;;;;;;23.90;33.33;99883.88;4198780;28;20053;-62
2023/11/12 06:55:44;;;;;;;1.60;0.60;;;;;;;23.92;33.40;99881.00;4198631;28;20045;-62
2023/11/12 06:57:47;;;;;;;2.03;0.60;;;;;;;23.93;33.27;99878.19;4198422;28;20044;-62
2023/11/12 06:59:49;;;;;;;2.78;0.80;;;;;;;23.95;33.32;99874.50;4198617;28;20049;-63
2023/11/12 07:01:50;;;;;;;2.95;0.70;;;;;;;23.91;33.04;99877.50;4198762;28;20055;-63
2023/11/12 07:03:52;;;;;;;2.50;0.80;;;;;;;23.93;33.62;99882.72;4198582;28;20491;-63
2023/11/12 07:05:54;;;;;;;1.42;0.60;;;;;;;23.91;33.81;99885.56;4198691;28;20064;-62
2023/11/12 07:07:57;;;;;;;1.67;0.70;;;;;;;23.90;33.12;99891.94;4198690;28;20048;-63
2023/11/12 07:09:59;;;;;;;1.95;0.68;;;;;;;23.90;33.20;99891.06;4198586;28;20114;-63
2023/11/12 07:12:06;;;;;;;2.55;0.77;;;;;;;23.90;33.32;99886.56;4197954;28;20168;-62
2023/11/12 07:14:08;;;;;;;1.63;0.60;;;;;;;23.91;33.42;99890.94;4198330;28;20128;-63
2023/11/12 07:16:16;;;;;;;2.25;0.70;;;;;;;23.91;33.34;99893.63;4198399;28;20195;-62
2023/11/12 07:18:18;;;;;;;2.22;0.60;;;;;;;23.91;33.59;99898.13;4198430;28;20041;-62
2023/11/12 07:20:20;;;;;;;2.17;0.60;;;;;;;23.94;33.41;99900.53;4198244;28;20091;-62
2023/11/12 07:22:23;;;;;;;2.00;0.60;;;;;;;23.87;33.09;99892.22;4198560;28;20137;-62
2023/11/12 07:24:29;;;;;;;2.70;0.70;;;;;;;23.94;33.17;99905.91;4198286;28;20052;-62
2023/11/12 07:26:31;;;;;;;2.03;0.63;;;;;;;23.92;33.33;99897.13;4197833;28;20060;-62
2023/11/12 07:28:32;;;;;;;3.13;0.60;;;;;;;23.90;33.25;99899.97;4198316;28;20048;-62
2023/11/12 07:30:38;;;;;;;;;;;;;;;23.89;33.34;99900.97;4198556;28;20049;-62
2023/11/12 07:32:40;;;;;;;1.55;0.50;;;;;;;23.86;33.27;99903.16;4198190;28;19935;-62
2023/11/12 07:34:41;;;;;;;2.35;0.70;;;;;;;23.88;33.28;99910.03;4198034;28;20048;-64
2023/11/12 07:36:43;;;;;;;1.67;0.57;;;;;;;23.88;33.58;99899.28;4196898;28;20048;-62
2023/11/12 07:38:45;;;;;;;1.55;0.65;;;;;;;23.90;33.38;99909.88;4198010;28;20068;-62
2023/11/12 07:40:47;;;;;;;;;;;;;;;23.89;33.19;99918.91;4196729;28;20082;-62
2023/11/12 07:42:48;;;;;;;2.10;0.60;;;;;;;23.88;33.28;99914.56;4197804;28;19920;-63
2023/11/12 07:44:50;;;;;;;;;;;;;;;23.90;33.40;99917.91;4198302;28;20059;-62
2023/11/12 07:47:04;;;;;;;1.80;0.60;;;;;;;23.89;33.27;99921.59;4197969;28;19921;-62
2023/11/12 07:49:07;;;;;;;1.67;0.50;;;;;;;23.90;33.49;99917.91;4197903;28;20068;-62
2023/11/12 07:51:09;;;;;;;1.70;0.65;;;;;;;23.89;33.32;99930.53;4197514;28;20139;-62
2023/11/12 07:53:10;;;;;;;1.85;0.60;;;;;;;23.90;33.46;99925.97;4197696;28;20568;-62
2023/11/12 07:55:12;;;;;;;;;;;;;;;23.88;33.63;99931.53;4197903;28;20053;-62
2023/11/12 07:57:14;;;;;;;2.00;0.50;;;;;;;23.87;33.35;99931.69;4197888;28;19927;-62
2023/11/12 07:59:15;;;;;;;2.35;0.60;;;;;;;23.89;33.35;99933.22;4197687;28;20551;-62
2023/11/12 08:01:17;;;;;;;3.35;0.60;;;;;;;23.90;33.53;99932.22;4197512;28;20048;-62
2023/11/12 08:03:18;;;;;;;;;;;;;;;23.89;33.63;99932.34;4197967;28;20094;-61
2023/11/12 08:05:23;;;;;;;0.77;0.47;;;;;;;23.87;33.73;99937.06;4196478;28;19956;-62
2023/11/12 08:07:24;;;;;;;2.55;0.60;;;;;;;23.88;33.58;99928.00;4197579;28;20098;-62
2023/11/12 08:09:26;;;;;;;1.92;0.65;;;;;;;23.89;33.27;99930.53;4197409;28;20106;-62
2023/11/12 08:11:27;;;;;;;1.88;0.50;;;;;;;23.90;33.64;99932.22;4196410;28;20052;-62
2023/11/12 08:13:30;;;;;;;1.90;0.77;;;;;;;23.89;33.22;99926.97;4197630;28;20090;-62
2023/11/12 08:15:31;;;;;;;;;;;;;;;23.88;33.66;99931.53;4197802;28;20044;-63
2023/11/12 08:17:33;;;;;;;1.52;0.50;;;;;;;23.83;33.26;99927.63;4197361;28;20005;-64
2023/11/12 08:19:35;;;;;;;1.30;0.47;;;;;;;23.87;33.52;99937.88;4196178;28;20045;-64
2023/11/12 08:21:37;;;;;;;2.88;0.70;;;;;;;23.88;33.47;99933.38;4197442;28;20543;-61
2023/11/12 08:23:39;;;;;;;1.52;0.50;;;;;;;23.88;33.51;99930.69;4196982;28;20074;-62
2023/11/12 08:25:40;;;;;;;2.33;0.70;;;;;;;23.90;33.32;99942.09;4197386;28;20056;-62
2023/11/12 08:27:42;;;;;;;1.65;0.60;;;;;;;23.90;33.56;99944.78;4196073;28;20053;-62
2023/11/12 08:29:44;;;;;;;;;;;;;;;23.88;33.34;99950.31;4197694;28;20067;-62
2023/11/12 08:31:45;;;;;;;1.40;0.52;;;;;;;23.90;33.57;99947.47;4197299;28;19959;-65
2023/11/12 08:33:47;;;;;;;1.10;0.50;;;;;;;23.88;33.53;99939.56;4197109;28;20098;-64
2023/11/12 08:35:48;;;;;;;1.63;0.55;;;;;;;23.86;33.23;99946.13;4197305;28;20556;-64
2023/11/12 08:37:50;;;;;;;1.42;0.52;;;;;;;23.89;33.59;99951.16;4195487;28;20071;-64
2023/11/12 08:39:52;;;;;;;1.58;0.60;;;;;;;23.87;33.42;99948.63;4195744;28;20393;-64
2023/11/12 08:41:54;;;;;;;1.38;0.52;;;;;;;23.86;33.55;99946.13;4197237;28;20048;-63
2023/11/12 08:43:56;;;;;;;2.15;0.63;;;;;;;23.84;33.72;99943.59;4197128;28;20048;-63
2023/11/12 08:45:57;;;;;;;1.45;0.55;;;;;;;23.85;34.20;99947.97;4196781;28;20044;-63
2023/11/12 08:48:00;;;;;;;0.93;0.40;;;;;;;23.84;33.75;99948.97;4196932;28;20515;-64
2023/11/12 08:50:01;;;;;;;1.42;0.50;;;;;;;23.84;33.76;99948.09;4196875;28;20141;-63
2023/11/12 08:52:04;;;;;;;;;;;;;;;23.83;33.76;99952.66;4197464;28;20044;-60
2023/11/12 08:54:06;;;;;;;1.52;0.50;;;;;;;23.82;33.60;99958.19;4196644;28;19924;-62
2023/11/12 08:56:08;;;;;;;2.72;0.43;;;;;;;23.82;33.34;99963.56;4196901;28;20564;-63
2023/11/12 08:58:09;;;;;;;;;;;;;;;23.79;33.44;99975.44;4197200;28;20072;-63
2023/11/12 09:00:12;;;;;;;1.67;0.60;;;;;;;23.73;33.47;99963.50;4196813;28;19920;-62
2023/11/12 09:02:13;;;;;;;1.67;0.60;;;;;;;23.73;33.60;99970.69;4196869;28;20094;-64
2023/11/12 09:04:15;;;;;;;1.92;0.70;;;;;;;23.71;33.84;99970.03;4196684;28;20044;-64
2023/11/12 09:06:16;;;;;;;2.28;0.60;;;;;;;23.67;33.83;99974.88;4196771;28;20048;-65
2023/11/12 09:08:20;;;;;;;1.02;0.50;;;;;;;23.71;34.00;99980.78;4196612;28;20469;-64
2023/11/12 09:10:21;;;;;;;1.58;0.60;;;;;;;23.71;33.54;99980.78;4196699;28;20049;-64
2023/11/12 09:12:23;;;;;;;2.13;0.63;;;;;;;23.71;33.73;99981.59;4195729;28;20067;-63
2023/11/12 09:14:26;;;;;;;1.08;0.47;;;;;;;23.72;33.83;99979.75;4196610;28;20127;-64
2023/11/12 09:16:27;;;;;;;1.58;0.50;;;;;;;23.74;33.69;99983.13;4196720;28;20095;-61
2023/11/12 09:18:29;;;;;;;2.35;0.70;;;;;;;23.75;33.92;99987.50;4196824;28;20052;-64
2023/11/12 09:20:31;;;;;;;1.88;0.50;;;;;;;23.75;33.62;99991.00;4196778;28;20044;-61
2023/11/12 09:22:33;;;;;;;1.08;0.50;;;;;;;23.74;33.83;99986.66;4196414;28;20492;-63
2023/11/12 09:24:35;;;;;;;2.13;0.50;;;;;;;23.74;33.62;99988.50;4196729;28;20045;-61
2023/11/12 09:26:37;;;;;;;1.20;0.55;;;;;;;23.74;33.89;99994.72;4196380;28;20045;-61
2023/11/12 09:28:39;;;;;;;1.48;0.47;;;;;;;23.74;33.68;100008.16;4195292;28;20050;-64
2023/11/12 09:30:40;;;;;;;1.27;0.40;;;;;;;23.76;33.75;100006.13;4196636;28;20068;-63
2023/11/12 09:32:58;;;;;;;1.70;0.35;;;;;;;23.77;33.56;100005.13;4196410;28;20052;-65
2023/11/12 09:35:00;;;;;;;0.98;0.40;;;;;;;23.83;33.64;100005.50;4196471;28;20044;-63
2023/11/12 09:37:03;;;;;;;1.48;0.50;;;;;;;23.80;33.59;100005.81;4196211;28;20090;-62
2023/11/12 09:39:06;;;;;;;1.45;0.43;;;;;;;23.86;33.51;100006.03;4196382;28;20075;-64
2023/11/12 09:41:09;;;;;;;1.38;0.40;;;;;;;23.89;33.70;100002.16;4196363;28;20051;-64
2023/11/12 09:43:12;;;;;;;1.48;0.50;;;;;;;23.88;33.58;100008.56;4196462;28;20483;-64